Time;durP1;ratioP1;P1;durP2;ratioP2;P2;SDS_P1;SDS_P2;PMS_P1;PMS_P2;Temp;Humidity;BMP_temperature;BMP_pressure;BME280_temperature;BME280_humidity;BME280_pressure;Samples;Min_cycle;Max_cycle;Signal;HPM_P1;HPM_P2
2021/10/23 00:00:03;;;;;;;11.10;4.85;;;;;;;;;;5051533;28;20348;-64
2021/10/23 00:02:29;;;;;;;12.45;6.55;;;;;;;;;;5051354;28;20055;-65
2021/10/23 00:04:55;;;;;;;14.07;7.13;;;;;;;;;;5051458;28;20033;-64
2021/10/23 00:07:21;;;;;;;14.43;6.65;;;;;;;;;;5050137;28;20037;-64
2021/10/23 00:09:47;;;;;;;11.93;5.63;;;;;;;;;;5050374;28;20522;-64
2021/10/23 00:12:13;;;;;;;10.45;5.05;;;;;;;;;;5050511;28;20021;-65
2021/10/23 00:14:39;;;;;;;10.85;4.75;;;;;;;;;;5049269;28;20159;-65
2021/10/23 00:17:05;;;;;;;11.75;4.55;;;;;;;;;;5051722;28;20130;-65
2021/10/23 00:19:31;;;;;;;8.50;4.00;;;;;;;;;;5050232;28;20493;-65
2021/10/23 00:21:57;;;;;;;8.43;3.97;;;;;;;;;;5050387;28;20049;-64
2021/10/23 00:24:23;;;;;;;13.13;5.47;;;;;;;;;;5060493;28;20057;-64
2021/10/23 00:26:49;;;;;;;8.95;4.97;;;;;;;;;;5049111;28;20516;-64
2021/10/23 00:29:15;;;;;;;10.65;5.03;;;;;;;;;;5050986;28;20090;-64
2021/10/23 00:31:41;;;;;;;9.82;5.22;;;;;;;;;;5049240;28;20025;-64
2021/10/23 00:34:07;;;;;;;12.90;6.28;;;;;;;;;;5052290;28;20520;-64
2021/10/23 00:36:33;;;;;;;10.70;6.22;;;;;;;;;;5050173;28;20025;-64
2021/10/23 00:38:59;;;;;;;10.23;5.40;;;;;;;;;;5051678;28;20503;-64
2021/10/23 00:41:25;;;;;;;13.70;6.20;;;;;;;;;;5051650;28;20033;-64
2021/10/23 00:43:51;;;;;;;10.70;5.43;;;;;;;;;;5055796;28;20024;-64
2021/10/23 00:46:17;;;;;;;9.98;4.32;;;;;;;;;;5055887;28;20546;-64
2021/10/23 00:48:44;;;;;;;10.48;5.28;;;;;;;;;;5049638;28;20346;-64
2021/10/23 00:51:10;;;;;;;10.07;4.57;;;;;;;;;;5049908;28;20033;-64
2021/10/23 00:53:36;;;;;;;8.10;4.10;;;;;;;;;;5052792;28;20036;-64
2021/10/23 00:56:03;;;;;;;8.05;3.92;;;;;;;;;;5047752;28;20051;-64
2021/10/23 00:58:29;;;;;;;8.75;4.28;;;;;;;;;;5049297;28;20370;-65
2021/10/23 01:00:56;;;;;;;10.98;4.65;;;;;;;;;;5049150;28;20085;-64
2021/10/23 01:03:22;;;;;;;9.60;4.45;;;;;;;;;;5052235;28;20030;-68
2021/10/23 01:05:48;;;;;;;9.57;4.35;;;;;;;;;;5053580;28;20025;-68
2021/10/23 01:08:14;;;;;;;7.80;4.32;;;;;;;;;;5050720;28;20025;-69
2021/10/23 01:10:40;;;;;;;9.25;4.85;;;;;;;;;;5048751;28;20029;-69
2021/10/23 01:13:06;;;;;;;9.35;4.30;;;;;;;;;;5051760;28;20048;-69
2021/10/23 01:15:33;;;;;;;6.80;3.40;;;;;;;;;;5058055;28;20033;-68
2021/10/23 01:18:01;;;;;;;8.60;3.50;;;;;;;;;;5050473;28;20391;-68
2021/10/23 01:20:28;;;;;;;6.60;3.47;;;;;;;;;;5051101;28;20021;-68
2021/10/23 01:22:54;;;;;;;6.57;3.90;;;;;;;;;;5053955;28;20075;-69
2021/10/23 01:25:21;;;;;;;7.20;3.65;;;;;;;;;;5049682;28;20552;-69
2021/10/23 01:27:47;;;;;;;7.05;4.22;;;;;;;;;;5048990;28;20040;-69
2021/10/23 01:30:14;;;;;;;7.07;3.50;;;;;;;;;;5048498;28;20032;-69
2021/10/23 01:32:40;;;;;;;5.95;3.40;;;;;;;;;;5054289;28;20055;-69
2021/10/23 01:35:06;;;;;;;7.80;3.13;;;;;;;;;;5052940;28;20115;-69
2021/10/23 01:37:43;;;;;;;9.05;3.20;;;;;;;;;;5048824;28;20403;-69
2021/10/23 01:40:10;;;;;;;7.45;3.20;;;;;;;;;;5048626;28;20489;-69
2021/10/23 01:42:36;;;;;;;9.48;3.30;;;;;;;;;;5050266;28;20126;-69
2021/10/23 01:45:02;;;;;;;9.20;3.38;;;;;;;;;;5060439;28;20513;-68
2021/10/23 01:47:28;;;;;;;135.63;6.45;;;;;;;;;;5050037;28;20104;-69
2021/10/23 01:49:54;;;;;;;6.35;3.10;;;;;;;;;;5048723;28;20151;-69
2021/10/23 01:52:20;;;;;;;6.65;2.92;;;;;;;;;;5047991;28;20029;-69
2021/10/23 01:54:46;;;;;;;9.73;3.95;;;;;;;;;;5059055;28;20048;-69
2021/10/23 01:57:12;;;;;;;6.05;3.03;;;;;;;;;;5048019;28;20037;-69
2021/10/23 01:59:38;;;;;;;8.25;3.58;;;;;;;;;;5052219;28;20484;-68
2021/10/23 02:02:04;;;;;;;6.80;3.55;;;;;;;;;;5047605;28;20524;-69
2021/10/23 02:04:30;;;;;;;11.85;3.83;;;;;;;;;;5052268;28;20033;-68
2021/10/23 02:06:56;;;;;;;7.70;3.35;;;;;;;;;;5048361;28;20044;-69
2021/10/23 02:09:22;;;;;;;11.85;4.47;;;;;;;;;;5048304;28;20076;-68
2021/10/23 02:11:48;;;;;;;7.55;3.63;;;;;;;;;;5050135;28;20021;-69
2021/10/23 02:14:14;;;;;;;10.35;3.63;;;;;;;;;;5053136;28;20029;-68
2021/10/23 02:16:40;;;;;;;8.85;3.28;;;;;;;;;;5047945;28;20043;-68
2021/10/23 02:19:06;;;;;;;6.97;2.78;;;;;;;;;;5047840;28;20041;-69
2021/10/23 02:21:32;;;;;;;6.22;3.10;;;;;;;;;;5047746;28;20021;-69
2021/10/23 02:23:58;;;;;;;7.47;3.60;;;;;;;;;;5050430;28;20060;-69
2021/10/23 02:26:24;;;;;;;7.40;3.05;;;;;;;;;;5049931;28;20021;-69
2021/10/23 02:28:50;;;;;;;11.98;2.95;;;;;;;;;;5048092;28;20358;-69
2021/10/23 02:31:16;;;;;;;5.63;2.83;;;;;;;;;;5047327;28;20025;-69
2021/10/23 02:33:42;;;;;;;6.15;2.97;;;;;;;;;;5049229;28;20048;-68
2021/10/23 02:36:09;;;;;;;6.82;2.83;;;;;;;;;;5043088;28;20028;-69
2021/10/23 02:38:35;;;;;;;11.48;2.95;;;;;;;;;;5050729;28;20044;-69
2021/10/23 02:41:01;;;;;;;8.10;2.70;;;;;;;;;;5047099;28;20028;-68
2021/10/23 02:43:27;;;;;;;7.13;2.80;;;;;;;;;;5049761;28;20033;-69
2021/10/23 02:45:53;;;;;;;5.25;2.42;;;;;;;;;;5047864;28;20033;-69
2021/10/23 02:48:19;;;;;;;6.20;2.20;;;;;;;;;;5047756;28;20025;-69
2021/10/23 02:50:46;;;;;;;6.93;2.28;;;;;;;;;;5049847;28;20047;-69
2021/10/23 02:53:12;;;;;;;6.10;2.60;;;;;;;;;;5054927;28;20032;-69
2021/10/23 02:55:38;;;;;;;5.57;2.80;;;;;;;;;;5050804;28;20029;-69
2021/10/23 02:58:05;;;;;;;5.18;2.45;;;;;;;;;;5045339;28;20392;-69
2021/10/23 03:00:31;;;;;;;6.20;2.42;;;;;;;;;;5047543;28;20035;-69
2021/10/23 03:02:57;;;;;;;4.55;2.47;;;;;;;;;;5048439;28;20029;-69
2021/10/23 03:05:23;;;;;;;4.43;2.28;;;;;;;;;;5051089;28;20028;-69
2021/10/23 03:07:49;;;;;;;6.57;2.72;;;;;;;;;;5047561;28;20029;-69
2021/10/23 03:10:15;;;;;;;6.80;2.70;;;;;;;;;;5046971;28;20028;-69
2021/10/23 03:12:41;;;;;;;5.82;2.22;;;;;;;;;;5049707;28;20060;-69
2021/10/23 03:15:08;;;;;;;5.57;2.20;;;;;;;;;;5057458;28;20029;-69
2021/10/23 03:17:34;;;;;;;5.00;2.35;;;;;;;;;;5050864;28;20037;-68
2021/10/23 03:20:01;;;;;;;5.80;2.42;;;;;;;;;;5047422;28;20025;-68
2021/10/23 03:22:27;;;;;;;7.20;2.35;;;;;;;;;;5047263;28;20104;-69
2021/10/23 03:24:53;;;;;;;4.00;2.20;;;;;;;;;;5056714;28;20540;-69
2021/10/23 03:27:22;;;;;;;5.95;1.88;;;;;;;;;;5047465;28;20029;-68
2021/10/23 03:29:49;;;;;;;4.68;2.22;;;;;;;;;;5048488;28;20025;-69
2021/10/23 03:32:15;;;;;;;5.25;2.30;;;;;;;;;;5050751;28;20021;-69
2021/10/23 03:34:41;;;;;;;9.10;2.38;;;;;;;;;;5046024;28;20460;-68
2021/10/23 03:37:07;;;;;;;10.57;2.63;;;;;;;;;;5046806;28;20118;-69
2021/10/23 03:39:33;;;;;;;5.38;2.40;;;;;;;;;;5047142;28;20134;-68
2021/10/23 03:41:59;;;;;;;4.93;2.30;;;;;;;;;;5048793;28;20033;-68
2021/10/23 03:44:25;;;;;;;7.82;2.67;;;;;;;;;;5050995;28;20443;-68
2021/10/23 03:46:51;;;;;;;5.80;1.90;;;;;;;;;;5047188;28;20139;-68
2021/10/23 03:49:17;;;;;;;4.47;2.17;;;;;;;;;;5047142;28;20040;-68
2021/10/23 03:51:43;;;;;;;8.05;2.00;;;;;;;;;;5046800;28;20025;-68
2021/10/23 03:54:09;;;;;;;4.50;2.15;;;;;;;;;;5047790;28;20009;-69
2021/10/23 03:56:35;;;;;;;6.05;1.95;;;;;;;;;;5050559;28;20060;-68
2021/10/23 03:59:01;;;;;;;4.55;2.33;;;;;;;;;;5045810;28;20061;-68
2021/10/23 04:01:27;;;;;;;7.65;2.20;;;;;;;;;;5046320;28;20480;-69
2021/10/23 04:03:54;;;;;;;4.97;2.30;;;;;;;;;;5051110;28;20089;-69
2021/10/23 04:06:20;;;;;;;14.77;2.40;;;;;;;;;;5046605;28;20109;-69
2021/10/23 04:08:46;;;;;;;5.53;2.28;;;;;;;;;;5049288;28;20044;-68
2021/10/23 04:11:12;;;;;;;5.28;2.20;;;;;;;;;;5053085;28;20025;-68
2021/10/23 04:13:38;;;;;;;6.07;2.38;;;;;;;;;;5052404;28;20550;-68
2021/10/23 04:16:04;;;;;;;7.68;2.50;;;;;;;;;;5050726;28;20017;-68
2021/10/23 04:18:30;;;;;;;7.22;2.60;;;;;;;;;;5048529;28;20037;-68
2021/10/23 04:20:57;;;;;;;4.80;2.40;;;;;;;;;;5052219;28;20396;-68
2021/10/23 04:23:24;;;;;;;5.22;1.92;;;;;;;;;;5060329;28;20048;-69
2021/10/23 04:25:49;;;;;;;7.05;2.47;;;;;;;;;;5050037;28;20032;-69
2021/10/23 04:28:15;;;;;;;5.45;2.20;;;;;;;;;;5050388;28;20039;-68
2021/10/23 04:30:41;;;;;;;5.25;2.55;;;;;;;;;;5049835;28;20021;-68
2021/10/23 04:33:07;;;;;;;4.88;2.03;;;;;;;;;;5049801;28;20057;-68
2021/10/23 04:35:33;;;;;;;5.28;2.47;;;;;;;;;;5052549;28;20417;-68
2021/10/23 04:37:59;;;;;;;5.10;2.50;;;;;;;;;;5048947;28;20086;-68
2021/10/23 04:40:25;;;;;;;7.20;2.35;;;;;;;;;;5049707;28;20029;-68
2021/10/23 04:42:51;;;;;;;4.43;2.05;;;;;;;;;;5049592;28;20032;-68
2021/10/23 04:45:17;;;;;;;4.20;2.20;;;;;;;;;;5048580;28;20029;-69
2021/10/23 04:47:43;;;;;;;7.45;2.17;;;;;;;;;;5053042;28;20035;-68
2021/10/23 04:50:09;;;;;;;6.55;1.85;;;;;;;;;;5051956;28;20044;-68
2021/10/23 04:52:35;;;;;;;4.35;2.30;;;;;;;;;;5048370;28;20029;-68
2021/10/23 04:55:01;;;;;;;6.80;2.35;;;;;;;;;;5049390;28;20033;-71
2021/10/23 04:57:27;;;;;;;5.55;2.40;;;;;;;;;;5051817;28;20044;-68
2021/10/23 04:59:54;;;;;;;6.28;2.90;;;;;;;;;;5050092;28;20075;-70
2021/10/23 05:02:20;;;;;;;5.75;3.03;;;;;;;;;;5052447;28;20025;-69
2021/10/23 05:04:46;;;;;;;7.20;3.85;;;;;;;;;;5048103;28;20021;-69
2021/10/23 05:07:12;;;;;;;7.28;3.35;;;;;;;;;;5047438;28;20032;-68
2021/10/23 05:09:38;;;;;;;6.93;2.95;;;;;;;;;;5049079;28;20029;-67
2021/10/23 05:12:04;;;;;;;7.47;3.03;;;;;;;;;;5049627;28;20486;-67
2021/10/23 05:14:30;;;;;;;6.47;3.17;;;;;;;;;;5050927;28;20025;-68
2021/10/23 05:16:56;;;;;;;6.28;2.40;;;;;;;;;;5049480;28;20083;-67
2021/10/23 05:19:22;;;;;;;6.18;2.45;;;;;;;;;;5049757;28;20139;-66
2021/10/23 05:21:48;;;;;;;6.20;2.65;;;;;;;;;;5048562;28;20025;-67
2021/10/23 05:24:14;;;;;;;11.55;2.63;;;;;;;;;;5049244;28;20029;-68
2021/10/23 05:26:40;;;;;;;3.95;2.20;;;;;;;;;;5051004;28;20040;-66
2021/10/23 05:29:06;;;;;;;4.13;2.25;;;;;;;;;;5050213;28;20456;-67
2021/10/23 05:31:32;;;;;;;5.63;2.35;;;;;;;;;;5050085;28;20108;-67
2021/10/23 05:33:58;;;;;;;4.30;1.88;;;;;;;;;;5049631;28;20048;-67
2021/10/23 05:36:24;;;;;;;5.63;2.50;;;;;;;;;;5048369;28;20374;-67
2021/10/23 05:38:50;;;;;;;4.22;2.10;;;;;;;;;;5049556;28;20068;-66
2021/10/23 05:41:16;;;;;;;4.55;2.30;;;;;;;;;;5051209;28;20515;-65
2021/10/23 05:43:42;;;;;;;4.47;2.70;;;;;;;;;;5052039;28;20116;-67
2021/10/23 05:46:08;;;;;;;6.50;2.50;;;;;;;;;;5049547;28;20032;-69
2021/10/23 05:48:34;;;;;;;4.38;1.95;;;;;;;;;;5047738;28;20032;-69
2021/10/23 05:51:00;;;;;;;4.50;2.13;;;;;;;;;;5048650;28;20037;-69
2021/10/23 05:53:27;;;;;;;4.65;2.20;;;;;;;;;;5052964;28;20033;-69
2021/10/23 05:55:53;;;;;;;4.85;2.40;;;;;;;;;;5047668;28;20499;-73
2021/10/23 05:58:19;;;;;;;10.82;2.80;;;;;;;;;;5048457;28;20041;-75
2021/10/23 06:00:54;;;;;;;4.25;2.28;;;;;;;;;;5048815;28;20025;-71
2021/10/23 06:03:22;;;;;;;4.65;2.50;;;;;;;;;;5047587;28;20032;-71
2021/10/23 06:05:48;;;;;;;6.80;3.08;;;;;;;;;;5046745;28;20039;-71
2021/10/23 06:08:14;;;;;;;8.65;3.20;;;;;;;;;;5049303;28;20473;-70
2021/10/23 06:10:40;;;;;;;7.85;3.22;;;;;;;;;;5048088;28;20025;-70
2021/10/23 06:13:06;;;;;;;7.68;3.70;;;;;;;;;;5047006;28;20527;-70
2021/10/23 06:15:33;;;;;;;6.63;3.78;;;;;;;;;;5047688;28;20033;-71
2021/10/23 06:18:02;;;;;;;8.85;2.90;;;;;;;;;;5048490;28;20041;-70
2021/10/23 06:20:28;;;;;;;5.45;2.47;;;;;;;;;;5050207;28;20071;-68
2021/10/23 06:22:54;;;;;;;8.93;2.90;;;;;;;;;;5052096;28;20032;-68
2021/10/23 06:25:21;;;;;;;6.55;2.95;;;;;;;;;;5051100;28;20025;-68
2021/10/23 06:27:47;;;;;;;7.00;3.00;;;;;;;;;;5047543;28;20536;-67
2021/10/23 06:30:13;;;;;;;5.07;2.80;;;;;;;;;;5047995;28;20035;-70
2021/10/23 06:32:49;;;;;;;5.05;2.90;;;;;;;;;;5053474;28;20396;-68
2021/10/23 06:35:15;;;;;;;7.90;3.30;;;;;;;;;;5049371;28;20076;-68
2021/10/23 06:37:42;;;;;;;8.88;3.42;;;;;;;;;;5047592;28;20035;-68
2021/10/23 06:40:08;;;;;;;7.07;3.70;;;;;;;;;;5041981;28;20079;-68
2021/10/23 06:42:34;;;;;;;8.45;3.85;;;;;;;;;;5039293;28;20039;-68
2021/10/23 06:45:00;;;;;;;6.00;3.28;;;;;;;;;;5047411;28;20025;-68
2021/10/23 06:47:26;;;;;;;8.93;3.83;;;;;;;;;;5045138;28;20033;-69
2021/10/23 06:49:53;;;;;;;10.50;4.25;;;;;;;;;;5046443;28;20176;-67
2021/10/23 06:52:19;;;;;;;6.13;3.28;;;;;;;;;;5041491;28;20510;-67
2021/10/23 06:54:45;;;;;;;6.43;3.22;;;;;;;;;;5033828;28;20047;-67
2021/10/23 06:57:11;;;;;;;7.55;3.10;;;;;;;;;;5046077;28;20494;-68
2021/10/23 06:59:37;;;;;;;7.47;3.13;;;;;;;;;;5048987;28;20065;-68
2021/10/23 07:02:04;;;;;;;6.03;2.75;;;;;;;;;;5043271;28;20071;-68
2021/10/23 07:04:29;;;;;;;4.97;2.72;;;;;;;;;;5048942;28;20469;-68
2021/10/23 07:06:55;;;;;;;10.07;3.53;;;;;;;;;;5045821;28;20071;-68
2021/10/23 07:09:22;;;;;;;5.90;3.47;;;;;;;;;;5057221;28;20495;-68
2021/10/23 07:11:48;;;;;;;6.53;3.17;;;;;;;;;;5047940;28;20029;-68
2021/10/23 07:14:14;;;;;;;9.00;4.68;;;;;;;;;;5049973;28;20037;-68
2021/10/23 07:16:40;;;;;;;5.38;2.85;;;;;;;;;;5031158;28;20150;-67
2021/10/23 07:19:06;;;;;;;5.20;3.08;;;;;;;;;;5046879;28;20037;-67
2021/10/23 07:21:32;;;;;;;8.15;3.60;;;;;;;;;;5046113;28;20029;-67
2021/10/23 07:23:59;;;;;;;12.45;6.90;;;;;;;;;;5049146;28;20498;-68
2021/10/23 07:26:25;;;;;;;10.57;5.80;;;;;;;;;;5050171;28;20036;-68
2021/10/23 07:28:52;;;;;;;7.40;4.60;;;;;;;;;;5048082;28;20017;-67
2021/10/23 07:31:18;;;;;;;4.90;3.10;;;;;;;;;;5046907;28;20029;-69
2021/10/23 07:33:44;;;;;;;5.10;2.65;;;;;;;;;;5047863;28;20119;-66
2021/10/23 07:36:10;;;;;;;7.05;3.40;;;;;;;;;;5049545;28;20060;-68
2021/10/23 07:38:37;;;;;;;6.97;2.88;;;;;;;;;;5051554;28;20116;-68
2021/10/23 07:41:03;;;;;;;5.00;2.55;;;;;;;;;;5047406;28;20036;-68
2021/10/23 07:43:30;;;;;;;4.88;2.33;;;;;;;;;;5047062;28;20079;-68
2021/10/23 07:45:56;;;;;;;3.83;2.28;;;;;;;;;;5050608;28;20091;-68
2021/10/23 07:48:22;;;;;;;3.78;2.42;;;;;;;;;;5050484;28;20124;-67
2021/10/23 07:50:48;;;;;;;5.70;2.33;;;;;;;;;;5053973;28;20092;-68
2021/10/23 07:53:18;;;;;;;6.45;2.30;;;;;;;;;;5052597;28;20518;-67
2021/10/23 07:55:44;;;;;;;6.45;2.30;;;;;;;;;;5051127;28;20032;-67
2021/10/23 07:58:11;;;;;;;5.32;2.25;;;;;;;;;;5050707;28;20039;-67
2021/10/23 08:00:37;;;;;;;4.50;2.22;;;;;;;;;;5049032;28;20025;-67
2021/10/23 08:03:03;;;;;;;8.55;3.05;;;;;;;;;;5049234;28;20036;-67
2021/10/23 08:05:34;;;;;;;6.78;3.78;;;;;;;;;;5052892;28;20029;-68
2021/10/23 08:08:00;;;;;;;7.38;3.75;;;;;;;;;;5051133;28;20021;-67
2021/10/23 08:10:27;;;;;;;6.32;3.30;;;;;;;;;;5050893;28;20029;-67
2021/10/23 08:12:53;;;;;;;7.72;3.00;;;;;;;;;;5051054;28;20107;-67
2021/10/23 08:15:19;;;;;;;5.43;2.80;;;;;;;;;;5051075;28;20022;-67
2021/10/23 08:17:45;;;;;;;6.10;2.75;;;;;;;;;;5053616;28;20032;-67
2021/10/23 08:20:12;;;;;;;5.82;2.60;;;;;;;;;;5052062;28;20021;-67
2021/10/23 08:22:39;;;;;;;5.53;2.83;;;;;;;;;;5050521;28;20111;-67
2021/10/23 08:25:06;;;;;;;6.93;3.05;;;;;;;;;;5050937;28;20021;-67
2021/10/23 08:27:33;;;;;;;9.77;3.15;;;;;;;;;;5050074;28;20345;-67
2021/10/23 08:30:02;;;;;;;6.18;3.15;;;;;;;;;;5052378;28;20029;-67
2021/10/23 08:32:28;;;;;;;7.18;3.33;;;;;;;;;;5053401;28;20049;-66
2021/10/23 08:34:55;;;;;;;8.15;3.03;;;;;;;;;;5050398;28;20021;-69
2021/10/23 08:37:22;;;;;;;3.85;2.20;;;;;;;;;;5050666;28;20021;-68
2021/10/23 08:39:48;;;;;;;3.22;1.75;;;;;;;;;;5049638;28;20025;-68
2021/10/23 08:42:15;;;;;;;3.90;1.90;;;;;;;;;;5050620;28;20391;-68
2021/10/23 08:44:43;;;;;;;3.05;1.52;;;;;;;;;;5053845;28;20060;-68
2021/10/23 08:47:09;;;;;;;4.07;1.40;;;;;;;;;;5051286;28;20029;-66
2021/10/23 08:49:36;;;;;;;2.38;1.45;;;;;;;;;;5050152;28;20110;-69
2021/10/23 08:52:02;;;;;;;4.28;1.20;;;;;;;;;;5050489;28;20070;-68
2021/10/23 08:54:30;;;;;;;1.58;1.05;;;;;;;;;;5050485;28;20025;-68
2021/10/23 08:56:56;;;;;;;5.38;1.40;;;;;;;;;;5049540;28;20128;-68
2021/10/23 08:59:22;;;;;;;1.38;1.10;;;;;;;;;;5050642;28;20458;-68
2021/10/23 09:01:48;;;;;;;4.35;1.33;;;;;;;;;;5050360;28;20035;-67
2021/10/23 09:04:14;;;;;;;2.08;1.33;;;;;;;;;;5049936;28;20017;-67
2021/10/23 09:06:40;;;;;;;5.85;1.23;;;;;;;;;;5050368;28;20438;-63
2021/10/23 09:09:13;;;;;;;2.67;1.35;;;;;;;;;;5051105;28;20025;-63
2021/10/23 09:11:43;;;;;;;3.63;1.40;;;;;;;;;;5049535;28;20029;-63
2021/10/23 09:14:20;;;;;;;2.63;1.42;;;;;;;;;;5050391;28;20373;-63
2021/10/23 09:16:47;;;;;;;3.47;1.48;;;;;;;;;;5050099;28;20032;-63
2021/10/23 09:19:13;;;;;;;4.38;1.60;;;;;;;;;;5049947;28;20036;-63
2021/10/23 09:21:39;;;;;;;3.17;1.50;;;;;;;;;;5051004;28;20025;-64
2021/10/23 09:24:21;;;;;;;4.50;1.90;;;;;;;;;;5050746;28;20029;-63
2021/10/23 09:26:50;;;;;;;2.58;1.50;;;;;;;;;;5049215;28;20036;-63
2021/10/23 09:29:16;;;;;;;;;;;;;;;;;;5052965;28;20017;-61
2021/10/23 09:31:44;;;;;;;4.00;1.63;;;;;;;;;;5049256;28;19915;-62
2021/10/23 09:34:10;;;;;;;2.78;1.60;;;;;;;;;;5049339;28;20142;-62
2021/10/23 09:36:44;;;;;;;3.00;1.50;;;;;;;;;;5049745;28;20025;-62
2021/10/23 09:39:10;;;;;;;3.72;1.33;;;;;;;;;;5033708;28;20064;-62
2021/10/23 09:41:36;;;;;;;2.17;0.80;;;;;;;;;;5053048;28;20106;-62
2021/10/23 09:44:15;;;;;;;2.95;1.13;;;;;;;;;;5049192;28;20112;-62
2021/10/23 09:46:51;;;;;;;2.80;0.90;;;;;;;;;;5049495;28;20029;-62
2021/10/23 09:49:17;;;;;;;2.65;0.90;;;;;;;;;;5049062;28;20110;-63
2021/10/23 09:51:43;;;;;;;1.05;0.73;;;;;;;;;;5049293;28;20064;-63
2021/10/23 09:54:14;;;;;;;3.67;1.00;;;;;;;;;;5033569;28;20025;-63
2021/10/23 09:56:49;;;;;;;3.28;1.15;;;;;;;;;;5052758;28;20025;-62
2021/10/23 09:59:25;;;;;;;3.67;1.00;;;;;;;;;;5051522;28;20037;-62
2021/10/23 10:01:52;;;;;;;2.55;0.90;;;;;;;;;;5050507;28;20017;-62
2021/10/23 10:04:18;;;;;;;1.67;1.00;;;;;;;;;;5048779;28;20098;-62
2021/10/23 10:06:45;;;;;;;3.33;1.00;;;;;;;;;;5048826;28;20024;-62
2021/10/23 10:09:11;;;;;;;1.98;0.88;;;;;;;;;;5033589;28;20376;-62
2021/10/23 10:11:38;;;;;;;3.38;0.90;;;;;;;;;;5051917;28;20465;-62
2021/10/23 10:14:09;;;;;;;1.73;0.85;;;;;;;;;;5048966;28;20021;-62
2021/10/23 10:16:36;;;;;;;3.83;1.33;;;;;;;;;;5049030;28;20495;-62
2021/10/23 10:19:02;;;;;;;4.38;1.23;;;;;;;;;;5048380;28;20504;-62
2021/10/23 10:21:33;;;;;;;5.35;2.08;;;;;;;;;;5048494;28;20029;-62
2021/10/23 10:23:59;;;;;;;4.43;1.73;;;;;;;;;;5050476;28;20029;-62
2021/10/23 10:26:26;;;;;;;3.70;1.80;;;;;;;;;;5050776;28;20033;-62
2021/10/23 10:29:12;;;;;;;3.28;1.70;;;;;;;;;;5048612;28;20553;-62
2021/10/23 10:31:53;;;;;;;3.33;1.65;;;;;;;;;;5047145;28;20116;-62
2021/10/23 10:34:39;;;;;;;3.20;1.70;;;;;;;;;;5048484;28;20128;-62
2021/10/23 10:42:50;;;;;;;3.08;1.50;;;;;;;;;;5048534;28;20053;-62
2021/10/23 10:45:33;;;;;;;3.72;1.40;;;;;;;;;;5033516;28;20030;-62
2021/10/23 10:48:11;;;;;;;4.43;1.40;;;;;;;;;;5049830;28;20025;-62
2021/10/23 10:50:51;;;;;;;3.33;1.25;;;;;;;;;;5051915;28;20028;-63
2021/10/23 10:53:19;;;;;;;2.75;1.25;;;;;;;;;;5050991;28;20103;-62
2021/10/23 10:55:46;;;;;;;3.47;1.00;;;;;;;;;;5047736;28;20029;-62
2021/10/23 10:58:13;;;;;;;3.83;1.00;;;;;;;;;;5048287;28;20793;-60
2021/10/23 11:00:48;;;;;;;4.75;1.10;;;;;;;;;;5046822;28;20111;-62
2021/10/23 11:03:36;;;;;;;5.05;0.82;;;;;;;;;;5033059;28;20029;-63
2021/10/23 11:06:21;;;;;;;3.25;0.95;;;;;;;;;;5049546;28;20110;-63
2021/10/23 11:08:47;;;;;;;2.28;1.05;;;;;;;;;;5047323;28;20115;-62
2021/10/23 11:11:13;;;;;;;1.27;0.65;;;;;;;;;;5052396;28;20637;-62
2021/10/23 11:13:43;;;;;;;1.45;0.70;;;;;;;;;;5043735;28;20029;-63
2021/10/23 11:16:28;;;;;;;2.28;0.70;;;;;;;;;;5046805;28;20027;-62
2021/10/23 11:18:54;;;;;;;2.13;0.80;;;;;;;;;;5049522;28;20033;-62
2021/10/23 11:21:21;;;;;;;1.83;0.88;;;;;;;;;;5051787;28;20428;-62
2021/10/23 11:23:51;;;;;;;1.58;0.90;;;;;;;;;;5054465;28;20107;-62
2021/10/23 11:26:18;;;;;;;3.17;1.00;;;;;;;;;;5054933;28;20060;-62
2021/10/23 11:28:44;;;;;;;2.92;0.95;;;;;;;;;;5051617;28;20032;-62
2021/10/23 11:31:17;;;;;;;2.08;1.10;;;;;;;;;;5051788;28;20069;-61
2021/10/23 11:33:43;;;;;;;4.40;1.13;;;;;;;;;;5051517;28;20136;-62
2021/10/23 11:36:16;;;;;;;2.53;1.20;;;;;;;;;;5035906;28;20021;-62
2021/10/23 11:38:46;;;;;;;4.28;1.48;;;;;;;;;;5050914;28;20036;-62
2021/10/23 11:41:12;;;;;;;2.85;1.30;;;;;;;;;;5052867;28;20018;-61
2021/10/23 11:43:39;;;;;;;3.78;1.42;;;;;;;;;;5051676;28;20032;-61
2021/10/23 11:46:06;;;;;;;2.50;1.37;;;;;;;;;;5051386;28;20546;-61
2021/10/23 11:48:32;;;;;;;4.68;1.60;;;;;;;;;;5051323;28;20029;-62
2021/10/23 11:50:59;;;;;;;5.10;1.70;;;;;;;;;;5053275;28;20074;-62
2021/10/23 11:53:27;;;;;;;6.30;1.63;;;;;;;;;;5053399;28;20071;-63
2021/10/23 11:55:55;;;;;;;7.25;2.00;;;;;;;;;;5051499;28;20017;-62
2021/10/23 11:58:26;;;;;;;5.15;1.77;;;;;;;;;;5051083;28;20032;-61
2021/10/23 12:00:59;;;;;;;4.13;1.70;;;;;;;;;;5050969;28;20100;-62
2021/10/23 12:03:34;;;;;;;6.60;2.22;;;;;;;;;;5051506;28;20022;-62
2021/10/23 12:06:12;;;;;;;4.70;1.80;;;;;;;;;;5052757;28;20025;-62
2021/10/23 12:08:38;;;;;;;4.32;1.92;;;;;;;;;;5054673;28;20025;-62
2021/10/23 12:11:09;;;;;;;4.47;1.80;;;;;;;;;;5050593;28;20033;-62
2021/10/23 12:13:53;;;;;;;4.65;1.67;;;;;;;;;;5051203;28;20032;-63
2021/10/23 12:16:30;;;;;;;6.65;2.20;;;;;;;;;;5051132;28;20033;-62
2021/10/23 12:19:15;;;;;;;7.35;2.30;;;;;;;;;;5050733;28;20443;-62
2021/10/23 12:21:41;;;;;;;7.00;2.50;;;;;;;;;;5050258;28;20029;-62
2021/10/23 12:24:15;;;;;;;7.10;2.90;;;;;;;;;;5051397;28;20105;-62
2021/10/23 12:26:41;;;;;;;9.43;3.30;;;;;;;;;;5050560;28;20025;-62
2021/10/23 12:29:08;;;;;;;11.52;3.20;;;;;;;;;;5052812;28;20035;-62
2021/10/23 12:31:53;;;;;;;10.95;3.70;;;;;;;;;;5050495;28;20041;-62
2021/10/23 12:34:19;;;;;;;10.10;3.50;;;;;;;;;;5049871;28;20044;-61
2021/10/23 12:36:52;;;;;;;10.15;3.60;;;;;;;;;;5050660;28;20384;-62
2021/10/23 12:39:23;;;;;;;12.40;4.32;;;;;;;;;;5050726;28;20069;-62
2021/10/23 12:41:49;;;;;;;9.32;3.80;;;;;;;;;;5053081;28;20025;-62
2021/10/23 12:44:19;;;;;;;10.60;3.95;;;;;;;;;;5050526;28;20442;-61
2021/10/23 12:46:45;;;;;;;9.43;4.40;;;;;;;;;;5049715;28;20021;-62
2021/10/23 12:49:11;;;;;;;9.18;3.75;;;;;;;;;;5049994;28;20025;-62
2021/10/23 12:51:37;;;;;;;9.82;4.30;;;;;;;;;;5050492;28;20473;-62
2021/10/23 12:54:05;;;;;;;13.43;5.43;;;;;;;;;;5051705;28;20053;-61
2021/10/23 12:56:31;;;;;;;13.88;4.55;;;;;;;;;;5053131;28;20048;-62
2021/10/23 12:58:57;;;;;;;9.75;4.60;;;;;;;;;;5049365;28;20086;-61
2021/10/23 13:01:24;;;;;;;17.25;6.28;;;;;;;;;;5050270;28;20021;-62
2021/10/23 13:03:50;;;;;;;13.10;5.47;;;;;;;;;;5050279;28;20476;-62
2021/10/23 13:06:16;;;;;;;14.35;5.28;;;;;;;;;;5050115;28;20465;-62
2021/10/23 13:08:42;;;;;;;26.02;10.25;;;;;;;;;;5053366;28;20060;-62
2021/10/23 13:11:09;;;;;;;24.42;11.63;;;;;;;;;;5049811;28;20021;-62
2021/10/23 13:13:40;;;;;;;20.40;8.30;;;;;;;;;;5050054;28;20036;-62
2021/10/23 13:16:06;;;;;;;18.67;8.30;;;;;;;;;;5051499;28;20492;-61
2021/10/23 13:18:34;;;;;;;16.55;7.00;;;;;;;;;;5049827;28;20048;-62
2021/10/23 13:21:01;;;;;;;22.27;8.10;;;;;;;;;;5050835;28;20020;-62
2021/10/23 13:23:27;;;;;;;14.07;5.40;;;;;;;;;;5052123;28;20399;-61
2021/10/23 13:25:54;;;;;;;16.40;6.35;;;;;;;;;;5049992;28;20025;-61
2021/10/23 13:28:20;;;;;;;21.42;9.52;;;;;;;;;;5049552;28;20025;-62
2021/10/23 13:30:46;;;;;;;17.63;7.45;;;;;;;;;;5048932;28;20040;-62
2021/10/23 13:33:12;;;;;;;19.48;8.20;;;;;;;;;;5049285;28;20040;-62
2021/10/23 13:35:38;;;;;;;18.30;7.65;;;;;;;;;;5053430;28;20040;-62
2021/10/23 13:38:04;;;;;;;23.27;9.13;;;;;;;;;;5049447;28;20040;-61
2021/10/23 13:40:30;;;;;;;24.52;10.98;;;;;;;;;;5049473;28;20017;-63
2021/10/23 13:42:56;;;;;;;20.48;9.65;;;;;;;;;;5048073;28;20036;-62
2021/10/23 13:45:23;;;;;;;112.53;55.90;;;;;;;;;;5049268;28;20022;-63
2021/10/23 13:47:49;;;;;;;22.83;10.70;;;;;;;;;;5051685;28;20036;-63
2021/10/23 13:50:15;;;;;;;23.20;10.48;;;;;;;;;;5050611;28;20033;-62
2021/10/23 13:52:41;;;;;;;21.45;10.93;;;;;;;;;;5049403;28;20484;-61
2021/10/23 13:55:07;;;;;;;39.97;21.67;;;;;;;;;;5048760;28;20032;-61
2021/10/23 13:57:33;;;;;;;34.13;17.90;;;;;;;;;;5048002;28;20099;-61
2021/10/23 13:59:59;;;;;;;32.22;17.08;;;;;;;;;;5051056;28;20032;-61
2021/10/23 14:02:25;;;;;;;28.10;14.75;;;;;;;;;;5050869;28;20029;-62
2021/10/23 14:04:51;;;;;;;31.30;13.88;;;;;;;;;;5048819;28;20025;-62
2021/10/23 14:07:17;;;;;;;26.77;11.60;;;;;;;;;;5047666;28;20029;-62
2021/10/23 14:09:43;;;;;;;22.35;10.60;;;;;;;;;;5048961;28;20035;-62
2021/10/23 14:12:09;;;;;;;23.40;12.52;;;;;;;;;;5049075;28;20036;-62
2021/10/23 14:14:35;;;;;;;27.17;15.98;;;;;;;;;;5052182;28;20021;-61
2021/10/23 14:17:02;;;;;;;26.67;12.23;;;;;;;;;;5048121;28;20028;-62
2021/10/23 14:19:28;;;;;;;24.20;12.40;;;;;;;;;;5048610;28;20045;-62
2021/10/23 14:21:54;;;;;;;19.67;10.20;;;;;;;;;;5048431;28;20036;-62
2021/10/23 14:24:20;;;;;;;17.40;9.77;;;;;;;;;;5048408;28;20551;-62
2021/10/23 14:26:48;;;;;;;20.15;10.85;;;;;;;;;;5051615;28;20021;-61
2021/10/23 14:29:14;;;;;;;24.70;11.80;;;;;;;;;;5051130;28;20013;-62
2021/10/23 14:31:40;;;;;;;36.47;18.85;;;;;;;;;;5048344;28;20044;-62
2021/10/23 14:34:06;;;;;;;30.20;15.30;;;;;;;;;;5049617;28;20045;-62
2021/10/23 14:36:33;;;;;;;25.08;12.52;;;;;;;;;;5048447;28;20501;-62
2021/10/23 14:38:59;;;;;;;23.33;11.38;;;;;;;;;;5050620;28;20037;-62
2021/10/23 14:41:26;;;;;;;23.42;10.70;;;;;;;;;;5050373;28;20021;-62
2021/10/23 14:43:53;;;;;;;24.08;11.95;;;;;;;;;;5048139;28;20435;-61